createdAt,value
2023-02-14T00:00:39.594Z,53.40
2023-02-14T00:01:43.124Z,54.45
2023-02-14T00:02:46.008Z,46.30
2023-02-14T00:03:49.610Z,64.15
2023-02-14T00:04:52.458Z,48.17
2023-02-14T00:05:55.229Z,46.45
2023-02-14T00:06:58.539Z,50.22
2023-02-14T00:08:01.276Z,49.63
2023-02-14T00:09:05.940Z,54.03
2023-02-14T00:10:10.178Z,56.03
2023-02-14T00:11:15.175Z,58.00
2023-02-14T00:12:18.321Z,59.15
2023-02-14T00:13:21.088Z,54.73
2023-02-14T00:14:42.368Z,52.27
2023-02-14T00:15:45.212Z,51.63
2023-02-14T00:16:48.078Z,47.13
2023-02-14T00:17:59.944Z,45.83
2023-02-14T00:19:05.971Z,44.47
2023-02-14T00:20:10.511Z,45.72
2023-02-14T00:21:13.297Z,43.20
2023-02-14T00:22:16.145Z,43.58
2023-02-14T00:23:19.232Z,45.83
2023-02-14T00:24:26.402Z,44.53
2023-02-14T00:25:29.124Z,47.43
2023-02-14T00:26:32.217Z,43.25
2023-02-14T00:27:35.765Z,40.80
2023-02-14T00:28:38.881Z,39.63
2023-02-14T00:29:41.645Z,44.50
2023-02-14T00:30:44.806Z,40.30
2023-02-14T00:31:48.218Z,38.42
2023-02-14T00:32:52.531Z,43.08
2023-02-14T00:33:55.629Z,41.97
2023-02-14T00:34:58.481Z,42.13
2023-02-14T00:36:04.106Z,40.08
2023-02-14T00:37:07.136Z,40.80
2023-02-14T00:38:09.906Z,38.08
2023-02-14T00:39:15.960Z,36.70
2023-02-14T00:40:18.729Z,43.75
2023-02-14T00:41:22.268Z,40.05
2023-02-14T00:42:27.083Z,37.70
2023-02-14T00:43:29.845Z,42.42
2023-02-14T00:44:33.397Z,39.38
2023-02-14T00:45:36.306Z,37.37
2023-02-14T00:46:39.850Z,42.87
2023-02-14T00:47:42.699Z,45.72
2023-02-14T00:48:46.133Z,44.30
2023-02-14T00:49:49.256Z,42.65
2023-02-14T00:50:52.183Z,37.13
2023-02-14T00:51:56.599Z,42.13
2023-02-14T00:52:59.417Z,40.38
2023-02-14T00:54:02.253Z,43.25
2023-02-14T00:55:06.748Z,39.47
2023-02-14T00:56:09.686Z,42.37
2023-02-14T00:57:12.440Z,41.88
2023-02-14T00:58:15.289Z,40.22
2023-02-14T00:59:18.148Z,43.30
2023-02-14T01:00:21.921Z,38.67
2023-02-14T01:01:25.040Z,42.60
2023-02-14T01:02:27.999Z,39.83
2023-02-14T01:03:31.057Z,36.40
2023-02-14T01:04:34.282Z,40.88
2023-02-14T01:05:37.390Z,41.03
2023-02-14T01:06:40.217Z,45.17
2023-02-14T01:07:43.269Z,41.00
2023-02-14T01:08:46.495Z,42.35
2023-02-14T01:09:49.458Z,40.10
2023-02-14T01:10:52.534Z,40.97
2023-02-14T01:11:55.388Z,38.90
2023-02-14T01:12:58.323Z,42.20
2023-02-14T01:14:01.161Z,41.97
2023-02-14T01:15:04.462Z,43.67
2023-02-14T01:16:10.505Z,36.85
2023-02-14T01:17:13.641Z,38.07
2023-02-14T01:18:18.641Z,39.30
2023-02-14T01:19:23.882Z,38.00
2023-02-14T01:20:27.394Z,38.53
2023-02-14T01:21:33.169Z,40.25
2023-02-14T01:22:39.301Z,36.50
2023-02-14T01:23:43.066Z,39.00
2023-02-14T01:24:46.746Z,42.00
2023-02-14T01:25:49.504Z,39.33
2023-02-14T01:26:52.776Z,36.50
2023-02-14T01:27:55.696Z,39.93
2023-02-14T01:28:58.496Z,44.07
2023-02-14T01:30:01.291Z,43.33
2023-02-14T01:31:08.458Z,40.75
2023-02-14T01:32:11.701Z,39.65
2023-02-14T10:52:59.484Z,11.43
2023-02-14T10:54:22.394Z,10.77
2023-02-14T10:55:32.708Z,16.55
2023-02-14T10:56:39.253Z,20.98
2023-02-14T10:57:43.559Z,13.48
2023-02-14T10:58:46.577Z,14.15
2023-02-14T11:00:01.248Z,13.80
2023-02-14T11:01:11.011Z,8.97
2023-02-14T11:02:15.687Z,9.57
2023-02-14T11:03:18.960Z,12.77
2023-02-14T11:04:24.767Z,11.68
2023-02-14T11:05:32.883Z,10.48
2023-02-14T11:06:35.636Z,9.35
2023-02-14T11:07:38.009Z,10.07
2023-02-14T11:08:41.191Z,9.25
2023-02-14T11:09:43.984Z,9.93
2023-02-14T11:10:46.805Z,11.13
2023-02-14T11:11:49.187Z,11.23
2023-02-14T11:12:51.623Z,11.05
2023-02-14T11:13:54.082Z,9.57
2023-02-14T11:15:08.338Z,8.65
2023-02-14T11:16:19.946Z,11.45
2023-02-14T11:17:29.812Z,10.75
2023-02-14T11:18:35.780Z,10.10
2023-02-14T11:19:38.957Z,10.63
2023-02-14T11:20:41.487Z,10.40
2023-02-14T11:21:45.492Z,11.33
2023-02-14T11:22:48.414Z,8.90
2023-02-14T11:23:51.672Z,10.88
2023-02-14T11:25:04.430Z,11.07
2023-02-14T11:26:16.256Z,9.90
2023-02-14T11:27:19.576Z,10.50
2023-02-14T11:28:22.162Z,10.77
2023-02-14T11:29:30.015Z,13.00
2023-02-14T11:30:43.711Z,9.83
2023-02-14T11:31:46.249Z,11.35
2023-02-14T11:32:58.163Z,10.43
2023-02-14T11:34:03.690Z,11.35
2023-02-14T11:35:13.993Z,13.07
2023-02-14T11:36:18.234Z,13.88
2023-02-14T11:37:23.906Z,11.65
2023-02-14T11:38:31.503Z,13.15
2023-02-14T11:39:37.754Z,11.73
2023-02-14T11:40:42.042Z,12.65
2023-02-14T11:41:51.772Z,14.05
2023-02-14T11:43:18.727Z,10.60
2023-02-14T11:44:26.348Z,12.13
2023-02-14T11:45:31.329Z,11.38
2023-02-14T11:46:41.387Z,10.87
2023-02-14T11:48:13.241Z,12.68
2023-02-14T11:49:38.857Z,11.43
2023-02-14T11:50:42.641Z,14.52
2023-02-14T11:51:45.593Z,10.70
2023-02-14T11:52:51.079Z,11.02
2023-02-14T11:53:56.069Z,12.70
2023-02-14T11:54:59.131Z,13.83
2023-02-14T11:56:03.851Z,13.38
2023-02-14T11:57:16.676Z,14.73
2023-02-14T11:58:45.326Z,13.65
2023-02-14T11:59:50.893Z,14.63
2023-02-14T12:00:54.169Z,16.00
2023-02-14T12:01:59.120Z,16.00
2023-02-14T12:03:04.846Z,13.20
2023-02-14T12:04:14.196Z,15.07
2023-02-14T12:05:19.612Z,13.90
2023-02-14T12:06:26.454Z,17.83
2023-02-14T12:07:31.131Z,18.70
2023-02-14T12:08:38.018Z,16.30
2023-02-14T12:09:42.891Z,16.10
2023-02-14T12:11:00.957Z,17.03
2023-02-14T12:12:14.871Z,21.27
2023-02-14T12:13:17.638Z,17.63
2023-02-14T12:14:21.098Z,19.35
2023-02-14T12:15:25.417Z,16.00
2023-02-14T12:16:35.377Z,18.67
2023-02-14T12:17:39.253Z,18.63
2023-02-14T12:18:54.240Z,17.25
2023-02-14T12:19:57.318Z,18.00
2023-02-14T12:21:12.787Z,24.90
2023-02-14T12:22:33.939Z,16.27
2023-02-14T12:23:45.441Z,18.27
2023-02-14T12:24:49.177Z,15.33
2023-02-14T12:26:02.488Z,18.45
2023-02-14T12:27:18.189Z,17.17
2023-02-14T12:28:26.111Z,18.25
2023-02-14T12:29:39.965Z,17.07
2023-02-14T12:30:42.754Z,15.30
2023-02-14T12:31:46.606Z,16.20
2023-02-14T12:32:51.139Z,22.77
2023-02-14T12:33:54.947Z,15.83
2023-02-14T12:35:26.689Z,18.35
2023-02-14T12:36:38.623Z,19.17
2023-02-14T12:37:50.743Z,16.58
2023-02-14T12:38:58.391Z,15.90
2023-02-14T12:40:10.067Z,16.58
2023-02-14T12:41:12.915Z,15.00
2023-02-14T12:42:35.081Z,15.98
2023-02-14T12:43:40.349Z,15.90
2023-02-14T12:45:03.072Z,14.43
2023-02-14T12:46:17.500Z,14.67
2023-02-14T12:47:27.520Z,14.10
2023-02-14T12:48:45.736Z,13.80
2023-02-14T12:50:09.948Z,15.45
2023-02-14T12:51:15.009Z,19.03
2023-02-14T12:52:32.438Z,14.40
2023-02-14T12:53:41.273Z,16.53
2023-02-14T12:54:46.233Z,14.32
2023-02-14T12:55:51.523Z,17.13
2023-02-14T12:57:07.979Z,15.95
2023-02-14T12:58:20.092Z,14.47
2023-02-14T12:59:43.536Z,13.68
2023-02-14T13:01:06.239Z,16.27
2023-02-14T13:02:27.895Z,14.38
2023-02-14T13:03:33.770Z,13.20
2023-02-14T13:04:40.978Z,14.73
2023-02-14T13:05:52.615Z,16.07
2023-02-14T13:06:59.812Z,14.77
2023-02-14T13:08:04.750Z,16.20
2023-02-14T13:09:19.050Z,16.00
2023-02-14T13:10:22.256Z,14.57
2023-02-14T13:11:44.706Z,11.88
2023-02-14T13:12:59.119Z,37.53
2023-02-14T13:14:04.660Z,15.43
2023-02-14T13:15:07.176Z,14.32
2023-02-14T13:16:20.277Z,15.30
2023-02-14T13:17:34.892Z,16.35
2023-02-14T13:18:46.565Z,16.83
2023-02-14T13:19:58.213Z,15.20
2023-02-14T13:21:03.030Z,20.17
2023-02-14T13:22:07.066Z,13.43
2023-02-14T13:23:15.802Z,13.97
2023-02-14T13:24:21.420Z,13.23
2023-02-14T13:25:35.696Z,13.83
2023-02-14T13:26:40.235Z,11.48
2023-02-14T13:27:43.353Z,13.50
2023-02-14T13:28:51.103Z,13.93
2023-02-14T13:29:55.876Z,18.83
2023-02-14T13:31:00.938Z,14.52
2023-02-14T13:32:03.975Z,17.30
2023-02-14T13:33:08.476Z,14.40
2023-02-14T13:34:19.917Z,10.85
2023-02-14T13:35:23.506Z,16.13
2023-02-14T13:36:26.761Z,19.52
2023-02-14T13:37:29.651Z,13.87
2023-02-14T13:38:32.981Z,13.82
2023-02-14T13:39:38.855Z,19.17
2023-02-14T13:40:42.310Z,16.85
2023-02-14T13:41:44.873Z,13.47
2023-02-14T13:42:50.515Z,14.85
2023-02-14T13:43:56.461Z,15.80
2023-02-14T13:44:58.964Z,15.18
2023-02-14T13:46:01.454Z,10.53
2023-02-14T13:47:04.538Z,12.20
2023-02-14T13:48:10.024Z,13.03
2023-02-14T13:49:18.661Z,12.20
2023-02-14T13:50:21.811Z,26.30
2023-02-14T13:51:43.189Z,22.60
2023-02-14T13:52:47.361Z,12.82
2023-02-14T13:53:51.469Z,12.87
2023-02-14T13:55:01.374Z,12.90
2023-02-14T13:56:05.799Z,12.40
2023-02-14T13:57:29.388Z,12.95
2023-02-14T13:58:32.257Z,13.40
2023-02-14T13:59:35.452Z,12.02
2023-02-14T14:00:39.407Z,13.37
2023-02-14T14:01:50.318Z,15.55
2023-02-14T14:02:53.926Z,15.57
2023-02-14T14:03:58.002Z,18.27
2023-02-14T14:05:00.565Z,16.30
2023-02-14T14:06:12.794Z,13.55
2023-02-14T14:07:24.501Z,12.50
2023-02-14T14:08:28.786Z,14.87
2023-02-14T14:09:44.942Z,14.23
2023-02-14T14:10:48.822Z,13.23
2023-02-14T14:11:52.262Z,11.87
2023-02-14T14:12:55.003Z,11.80
2023-02-14T14:13:59.379Z,11.23
2023-02-14T14:15:05.039Z,14.30
2023-02-14T14:16:29.231Z,13.43
2023-02-14T14:17:33.403Z,12.98
2023-02-14T14:18:50.779Z,12.20
2023-02-14T14:19:53.922Z,16.85
2023-02-14T14:20:59.941Z,17.83
2023-02-14T14:22:07.120Z,14.05
2023-02-14T14:23:25.735Z,12.90
2023-02-14T14:24:30.349Z,13.48
2023-02-14T14:26:06.536Z,16.27
2023-02-14T14:27:25.555Z,14.07
2023-02-14T14:28:30.722Z,13.87
2023-02-14T14:29:47.622Z,11.10
2023-02-14T14:30:51.753Z,13.43
2023-02-14T14:31:57.017Z,15.63
2023-02-14T14:33:33.351Z,14.87
2023-02-14T14:34:36.250Z,18.48
2023-02-14T14:35:39.147Z,15.57
2023-02-14T14:36:41.575Z,16.15
2023-02-14T14:38:11.591Z,16.07
2023-02-14T14:39:25.264Z,16.58
2023-02-14T14:40:34.498Z,15.20
2023-02-14T14:41:39.158Z,13.10
2023-02-14T14:42:43.995Z,13.43
2023-02-14T14:43:46.854Z,14.05
2023-02-14T14:45:18.541Z,11.53
2023-02-14T14:46:22.565Z,13.00
2023-02-14T14:47:26.857Z,10.37
2023-02-14T14:48:33.825Z,13.27
2023-02-14T14:49:36.828Z,14.13
2023-02-14T14:50:42.665Z,15.65
2023-02-14T14:51:45.775Z,18.10
2023-02-14T14:54:12.463Z,18.27
2023-02-14T14:55:23.118Z,16.52
2023-02-14T14:56:26.969Z,14.77
2023-02-14T14:57:31.329Z,14.63
2023-02-14T14:58:33.742Z,16.90
2023-02-14T14:59:40.393Z,16.30
2023-02-14T15:00:51.961Z,27.03
2023-02-14T15:01:54.765Z,57.55
2023-02-14T15:03:04.869Z,46.60
2023-02-14T15:04:12.054Z,51.03
2023-02-14T15:05:26.021Z,40.97
2023-02-14T15:06:28.865Z,23.80
2023-02-14T15:07:34.868Z,50.83
2023-02-14T15:08:39.040Z,24.75
2023-02-14T15:09:43.764Z,18.20
2023-02-14T15:11:02.292Z,37.30
2023-02-14T15:12:24.018Z,85.80
2023-02-14T15:13:58.437Z,34.85
2023-02-14T15:15:01.260Z,28.17
2023-02-14T15:16:05.100Z,47.55
2023-02-14T15:17:14.481Z,62.60
2023-02-14T15:18:17.469Z,39.67
2023-02-14T15:19:41.843Z,55.10
2023-02-14T15:20:49.231Z,51.35
2023-02-14T15:21:51.926Z,29.53
2023-02-14T15:22:54.968Z,67.80
2023-02-14T15:23:58.324Z,45.00
2023-02-14T15:25:08.266Z,68.70
2023-02-14T15:26:17.087Z,59.20
2023-02-14T15:27:21.331Z,56.20
2023-02-14T15:28:31.296Z,41.73
2023-02-14T15:29:34.276Z,66.93
2023-02-14T15:30:39.081Z,25.73
2023-02-14T15:31:44.355Z,28.05
2023-02-14T15:32:47.895Z,23.35
2023-02-14T15:33:50.381Z,33.30
2023-02-14T15:34:54.399Z,31.03
2023-02-14T15:35:58.023Z,138.03
2023-02-14T15:37:06.474Z,107.68
2023-02-14T15:38:10.926Z,161.05
2023-02-14T15:39:15.844Z,192.87
2023-02-14T15:40:22.738Z,93.22
2023-02-14T15:41:26.986Z,49.28
2023-02-14T15:42:33.441Z,46.20
2023-02-14T15:43:37.880Z,53.50
2023-02-14T15:44:40.631Z,203.60
2023-02-14T15:45:45.191Z,279.80
2023-02-14T15:46:53.814Z,101.27
2023-02-14T15:47:56.831Z,96.78
2023-02-14T15:49:01.492Z,57.72
2023-02-14T15:50:04.203Z,59.42
2023-02-14T15:51:15.236Z,47.13
2023-02-14T15:52:18.470Z,45.05
2023-02-14T15:53:33.634Z,75.22
2023-02-14T15:54:36.099Z,137.98
2023-02-14T15:55:38.693Z,58.20
2023-02-14T15:56:43.092Z,55.07
2023-02-14T15:57:48.600Z,58.30
2023-02-14T15:59:03.058Z,68.35
2023-02-14T16:00:11.371Z,55.50
2023-02-14T16:01:14.992Z,71.62
2023-02-14T16:02:23.203Z,58.85
2023-02-14T16:03:27.726Z,66.65
2023-02-14T16:04:34.979Z,41.37
2023-02-14T16:05:37.882Z,34.55
2023-02-14T16:06:44.751Z,29.98
2023-02-14T16:07:57.579Z,25.53
2023-02-14T16:09:00.647Z,32.43
2023-02-14T16:10:23.732Z,28.02
2023-02-14T16:11:30.601Z,29.42
2023-02-14T16:12:35.690Z,35.55
2023-02-14T16:13:39.829Z,41.45
2023-02-14T16:14:45.846Z,42.35
2023-02-14T16:15:59.251Z,57.50
2023-02-14T16:17:09.237Z,59.80
2023-02-14T16:18:20.454Z,65.97
2023-02-14T16:19:31.772Z,84.33
2023-02-14T16:20:43.363Z,52.13
2023-02-14T16:21:55.929Z,72.75
2023-02-14T16:23:14.712Z,107.65
2023-02-14T16:24:32.271Z,85.87
2023-02-14T16:25:35.651Z,63.80
2023-02-14T16:26:40.012Z,109.93
2023-02-14T16:27:43.195Z,99.25
2023-02-14T16:28:46.392Z,88.75
2023-02-14T16:29:50.376Z,87.72
2023-02-14T16:30:57.961Z,85.10
2023-02-14T16:32:17.379Z,74.57
2023-02-14T16:33:22.607Z,100.75
2023-02-14T16:34:26.925Z,64.20
2023-02-14T16:35:31.779Z,54.00
2023-02-14T16:36:35.355Z,35.78
2023-02-14T16:37:39.994Z,37.72
2023-02-14T16:38:44.517Z,33.08
2023-02-14T16:39:47.944Z,35.67
2023-02-14T16:40:55.209Z,34.45
2023-02-14T16:42:03.613Z,31.40
2023-02-14T16:43:07.368Z,36.37
2023-02-14T16:44:14.623Z,36.85
2023-02-14T16:45:19.761Z,34.42
2023-02-14T16:46:26.830Z,28.85
2023-02-14T16:47:31.156Z,32.78
2023-02-14T16:48:34.414Z,35.88
2023-02-14T16:49:37.738Z,30.85
2023-02-14T16:50:41.063Z,24.12
2023-02-14T16:51:46.397Z,31.02
2023-02-14T16:53:02.524Z,26.27
2023-02-14T16:54:09.004Z,25.20
2023-02-14T16:55:16.804Z,30.15
2023-02-14T16:56:39.218Z,33.22
2023-02-14T16:57:44.533Z,29.63
2023-02-14T16:58:48.209Z,25.85
2023-02-14T16:59:51.417Z,19.20
2023-02-14T17:00:56.128Z,18.52
2023-02-14T17:01:59.988Z,16.95
2023-02-14T17:03:10.983Z,21.77
2023-02-14T17:04:15.183Z,18.43
2023-02-14T17:05:19.643Z,23.00
2023-02-14T17:06:24.637Z,25.15
2023-02-14T17:07:28.533Z,26.75
2023-02-14T17:08:33.345Z,22.62
2023-02-14T17:09:40.567Z,22.52
2023-02-14T17:10:46.560Z,21.55
2023-02-14T17:11:52.810Z,23.08
2023-02-14T17:12:57.416Z,24.75
2023-02-14T17:14:00.625Z,22.17
2023-02-14T17:15:07.750Z,20.37
2023-02-14T17:16:13.374Z,17.73
2023-02-14T17:17:16.664Z,21.12
2023-02-14T17:18:21.703Z,23.48
2023-02-14T17:19:24.821Z,19.73
2023-02-14T17:20:29.257Z,19.25
2023-02-14T17:21:34.539Z,22.75
2023-02-14T17:22:37.895Z,17.15
2023-02-14T17:23:40.879Z,18.45
2023-02-14T17:24:44.109Z,19.37
2023-02-14T17:25:48.265Z,23.13
2023-02-14T17:26:51.949Z,20.73
2023-02-14T17:27:56.886Z,23.38
2023-02-14T17:29:00.015Z,20.35
2023-02-14T17:30:13.661Z,22.37
2023-02-14T17:31:18.467Z,23.40
2023-02-14T17:32:22.027Z,25.08
2023-02-14T17:33:26.580Z,25.98
2023-02-14T17:34:34.782Z,26.33
2023-02-14T17:35:38.453Z,26.87
2023-02-14T17:36:42.743Z,28.23
2023-02-14T17:37:47.265Z,27.17
2023-02-14T17:38:52.668Z,35.65
2023-02-14T17:39:57.519Z,41.15
2023-02-14T17:41:10.137Z,43.70
2023-02-14T17:42:18.040Z,45.00
2023-02-14T17:43:21.802Z,42.20
2023-02-14T17:44:25.478Z,49.33
2023-02-14T17:45:29.093Z,43.05
2023-02-14T17:46:34.090Z,42.47
2023-02-14T17:47:38.918Z,49.97
2023-02-14T17:48:46.131Z,48.43
2023-02-14T17:49:51.778Z,50.33
2023-02-14T17:50:55.473Z,49.38
2023-02-14T17:51:58.498Z,96.87
2023-02-14T17:53:02.336Z,87.18
2023-02-14T17:54:05.895Z,92.75
2023-02-14T17:55:12.269Z,85.75
2023-02-14T17:56:20.817Z,91.00
2023-02-14T17:57:24.670Z,125.43
2023-02-14T17:58:29.573Z,82.20
2023-02-14T17:59:35.506Z,76.80
2023-02-14T18:00:39.122Z,78.03
2023-02-14T18:01:43.491Z,89.50
2023-02-14T18:02:47.456Z,84.18
2023-02-14T18:03:54.951Z,86.43
2023-02-14T18:04:58.978Z,77.80
2023-02-14T18:06:03.465Z,75.30
2023-02-14T18:07:07.746Z,71.70
2023-02-14T18:08:14.657Z,78.82
2023-02-14T18:09:22.392Z,80.23
2023-02-14T18:10:30.404Z,77.20
2023-02-14T18:11:34.529Z,97.80
2023-02-14T18:12:44.449Z,114.30
2023-02-14T18:13:49.124Z,159.60
2023-02-14T18:14:53.961Z,155.12
2023-02-14T18:15:58.296Z,144.52
2023-02-14T18:17:06.109Z,111.53
2023-02-14T18:18:11.701Z,135.43
2023-02-14T18:19:17.075Z,114.65
2023-02-14T18:20:21.416Z,101.07
2023-02-14T18:21:26.114Z,71.83
2023-02-14T18:22:33.126Z,83.35
2023-02-14T18:23:40.783Z,76.43
2023-02-14T18:24:44.790Z,81.32
2023-02-14T18:25:55.518Z,56.60
2023-02-14T18:27:04.026Z,57.15
2023-02-14T18:28:07.909Z,50.95
2023-02-14T18:29:13.437Z,51.45
2023-02-14T18:30:17.664Z,54.10
2023-02-14T18:31:22.755Z,51.30
2023-02-14T18:32:28.058Z,50.70
2023-02-14T18:33:40.322Z,49.22
2023-02-14T18:34:45.149Z,50.83
2023-02-14T18:35:50.245Z,47.70
2023-02-14T18:36:54.078Z,53.70
2023-02-14T18:37:59.403Z,49.70
2023-02-14T18:39:05.788Z,62.72
2023-02-14T18:40:11.916Z,65.57
2023-02-14T18:41:17.403Z,50.42
2023-02-14T18:42:22.539Z,63.43
2023-02-14T18:43:26.566Z,61.97
2023-02-14T18:44:35.321Z,59.42
2023-02-14T18:45:41.073Z,59.33
2023-02-14T18:46:45.653Z,63.30
2023-02-14T18:47:51.559Z,55.45
2023-02-14T18:48:56.546Z,54.63
2023-02-14T18:50:00.875Z,54.78
2023-02-14T18:51:23.785Z,54.50
2023-02-14T18:52:27.972Z,70.12
2023-02-14T18:53:31.810Z,66.53
2023-02-14T18:54:36.296Z,68.73
2023-02-14T18:55:40.831Z,79.18
2023-02-14T18:56:45.693Z,69.60
2023-02-14T18:57:49.210Z,75.53
2023-02-14T18:58:56.163Z,74.05
2023-02-14T19:00:01.027Z,74.18
2023-02-14T19:01:09.248Z,88.50
2023-02-14T19:02:15.273Z,77.15
2023-02-14T19:03:19.173Z,79.97
2023-02-14T19:04:23.759Z,82.27
2023-02-14T19:05:31.140Z,79.57
2023-02-14T19:06:36.567Z,75.93
2023-02-14T19:07:42.339Z,61.67
2023-02-14T19:08:46.576Z,73.82
2023-02-14T19:09:50.765Z,75.53
2023-02-14T19:10:55.133Z,68.20
2023-02-14T19:12:00.635Z,60.20
2023-02-14T19:13:06.438Z,57.05
2023-02-14T19:14:11.512Z,49.33
2023-02-14T19:15:15.845Z,58.33
2023-02-14T19:16:22.485Z,57.57
2023-02-14T19:17:26.008Z,61.05
2023-02-14T19:18:31.398Z,57.65
2023-02-14T19:19:36.206Z,59.55
2023-02-14T19:20:41.110Z,54.63
2023-02-14T19:21:45.670Z,53.40
2023-02-14T19:22:49.717Z,52.10
2023-02-14T19:23:56.903Z,55.53
2023-02-14T19:25:04.234Z,52.55
2023-02-14T19:26:17.759Z,48.63
2023-02-14T19:27:31.631Z,55.83
2023-02-14T19:28:35.447Z,48.00
2023-02-14T19:29:40.365Z,53.58
2023-02-14T19:30:44.964Z,75.70
2023-02-14T19:31:50.306Z,63.40
2023-02-14T19:32:54.852Z,55.45
2023-02-14T19:33:58.646Z,58.70
2023-02-14T19:35:04.609Z,68.97
2023-02-14T19:36:09.926Z,74.07
2023-02-14T19:37:13.953Z,56.97
2023-02-14T19:38:18.464Z,66.30
2023-02-14T19:39:24.727Z,64.53
2023-02-14T19:40:30.495Z,58.75
2023-02-14T19:41:35.185Z,71.37
2023-02-14T19:42:40.969Z,63.85
2023-02-14T19:43:49.121Z,59.95
2023-02-14T19:44:55.537Z,79.43
2023-02-14T19:46:03.336Z,74.30
2023-02-14T19:47:25.373Z,79.68
2023-02-14T19:48:32.144Z,69.13
2023-02-14T19:49:36.814Z,49.50
2023-02-14T19:50:45.998Z,46.80
2023-02-14T19:51:52.250Z,39.78
2023-02-14T19:52:56.960Z,42.38
2023-02-14T19:54:03.428Z,37.67
2023-02-14T19:55:08.569Z,35.72
2023-02-14T19:56:13.842Z,34.75
2023-02-14T19:57:23.199Z,31.02
2023-02-14T19:58:28.981Z,34.28
2023-02-14T19:59:34.788Z,35.77
2023-02-14T20:00:39.185Z,29.53
2023-02-14T20:01:48.126Z,35.25
2023-02-14T20:02:52.762Z,36.05
2023-02-14T20:03:57.541Z,40.12
2023-02-14T20:05:04.978Z,44.83
2023-02-14T20:06:09.691Z,38.55
2023-02-14T20:07:15.346Z,42.53
2023-02-14T20:08:19.737Z,38.15
2023-02-14T20:09:26.664Z,34.38
2023-02-14T20:10:31.754Z,31.20
2023-02-14T20:11:56.303Z,34.07
2023-02-14T20:13:03.480Z,35.35
2023-02-14T20:14:08.262Z,30.85
2023-02-14T20:15:12.800Z,31.42
2023-02-14T20:16:19.462Z,35.55
2023-02-14T20:17:26.215Z,30.85
2023-02-14T20:18:32.932Z,29.25
2023-02-14T20:19:38.639Z,32.88
2023-02-14T20:21:07.011Z,30.90
2023-02-14T20:22:11.406Z,29.30
2023-02-14T20:23:17.441Z,32.67
2023-02-14T20:24:31.232Z,41.80
2023-02-14T20:25:41.063Z,44.17
2023-02-14T20:26:46.365Z,51.42
2023-02-14T20:27:54.183Z,55.80
2023-02-14T20:29:00.742Z,60.50
2023-02-14T20:30:07.020Z,49.63
2023-02-14T20:31:13.215Z,49.20
2023-02-14T20:32:19.034Z,47.53
2023-02-14T20:33:24.147Z,47.37
2023-02-14T20:34:30.499Z,52.20
2023-02-14T20:35:39.368Z,48.80
2023-02-14T20:36:44.196Z,50.95
2023-02-14T20:37:48.724Z,52.85
2023-02-14T20:39:09.852Z,54.30
2023-02-14T20:40:14.686Z,60.25
2023-02-14T20:41:19.482Z,55.42
2023-02-14T20:42:26.114Z,62.85
2023-02-14T20:43:31.740Z,64.53
2023-02-14T20:44:37.097Z,65.33
2023-02-14T20:45:42.041Z,65.57
2023-02-14T20:46:52.208Z,59.92
2023-02-14T20:48:03.880Z,51.45
2023-02-14T20:49:10.045Z,55.65
2023-02-14T20:50:18.972Z,51.10
2023-02-14T20:51:25.954Z,55.63
2023-02-14T20:52:43.329Z,53.95
2023-02-14T20:53:48.064Z,47.38
2023-02-14T20:54:52.612Z,51.37
2023-02-14T20:55:57.061Z,45.27
2023-02-14T20:57:02.005Z,45.70
2023-02-14T20:58:07.516Z,38.83
2023-02-14T20:59:13.480Z,43.22
2023-02-14T21:00:22.133Z,44.45
2023-02-14T21:01:27.365Z,42.50
2023-02-14T21:02:35.695Z,39.80
2023-02-14T21:03:43.880Z,47.08
2023-02-14T21:04:51.665Z,35.45
2023-02-14T21:05:59.483Z,36.83
2023-02-14T21:07:08.681Z,36.20
2023-02-14T21:08:12.922Z,35.77
2023-02-14T21:09:20.882Z,37.35
2023-02-14T21:10:32.247Z,38.08
2023-02-14T21:11:37.044Z,35.47
2023-02-14T21:12:45.390Z,38.60
2023-02-14T21:13:54.369Z,30.77
2023-02-14T21:15:01.589Z,35.25
2023-02-14T21:16:15.592Z,36.13
2023-02-14T21:17:20.723Z,36.13
2023-02-14T21:18:25.635Z,35.57
2023-02-14T21:19:30.159Z,36.07
2023-02-14T21:20:35.188Z,33.13
2023-02-14T21:21:42.822Z,30.83
2023-02-14T21:22:48.977Z,34.00
2023-02-14T21:23:54.601Z,34.97
2023-02-14T21:24:58.908Z,33.53
2023-02-14T21:26:04.272Z,35.42
2023-02-14T21:27:09.982Z,32.65
2023-02-14T21:28:20.855Z,36.63
2023-02-14T21:29:26.368Z,35.53
2023-02-14T21:30:33.051Z,34.70
2023-02-14T21:31:38.148Z,37.50
2023-02-14T21:32:42.112Z,35.53
2023-02-14T21:33:46.872Z,33.70
2023-02-14T21:34:52.023Z,32.78
2023-02-14T21:35:57.339Z,31.55
2023-02-14T21:37:01.641Z,30.15
2023-02-14T21:38:06.017Z,35.40
2023-02-14T21:39:10.354Z,30.35
2023-02-14T21:40:15.638Z,29.70
2023-02-14T21:41:21.103Z,34.27
2023-02-14T21:42:26.661Z,30.37
2023-02-14T21:43:36.480Z,39.78
2023-02-14T21:44:58.771Z,37.38
2023-02-14T21:46:11.048Z,28.30
2023-02-14T21:47:15.820Z,31.73
2023-02-14T21:48:39.014Z,39.05
2023-02-14T21:50:01.948Z,50.28
2023-02-14T21:51:06.735Z,43.78
2023-02-14T21:52:11.816Z,39.17
2023-02-14T21:53:20.723Z,35.77
2023-02-14T21:54:26.326Z,42.92
2023-02-14T21:55:31.243Z,34.50
2023-02-14T21:56:36.136Z,39.53
2023-02-14T21:57:41.378Z,34.33
2023-02-14T21:58:45.089Z,44.28
2023-02-14T21:59:49.809Z,40.35
2023-02-14T22:00:53.613Z,42.72
2023-02-14T22:01:58.939Z,43.83
2023-02-14T22:03:02.432Z,41.07
2023-02-14T22:04:09.384Z,44.30
2023-02-14T22:05:13.556Z,41.50
2023-02-14T22:06:16.978Z,39.45
2023-02-14T22:07:22.102Z,45.78
2023-02-14T22:08:25.407Z,43.53
2023-02-14T22:09:28.405Z,40.15
2023-02-14T22:10:31.217Z,39.45
2023-02-14T22:11:34.568Z,37.72
2023-02-14T22:12:37.628Z,40.50
2023-02-14T22:13:40.913Z,40.13
2023-02-14T22:14:43.702Z,44.63
2023-02-14T22:15:46.527Z,39.65
2023-02-14T22:16:50.880Z,39.72
2023-02-14T22:17:53.981Z,48.63
2023-02-14T22:18:56.552Z,41.67
2023-02-14T22:19:58.953Z,45.17
2023-02-14T22:21:02.954Z,43.63
2023-02-14T22:22:05.855Z,40.70
2023-02-14T22:23:08.743Z,43.72
2023-02-14T22:24:11.333Z,43.97
2023-02-14T22:25:13.787Z,41.58
2023-02-14T22:26:28.867Z,49.72
2023-02-14T22:27:32.228Z,39.78
2023-02-14T22:28:34.958Z,45.85
2023-02-14T22:29:37.433Z,49.00
2023-02-14T22:30:40.357Z,44.38
2023-02-14T22:31:43.520Z,47.70
2023-02-14T22:32:46.065Z,44.72
2023-02-14T22:33:49.706Z,44.15
2023-02-14T22:34:52.275Z,44.07
2023-02-14T22:35:55.724Z,49.47
2023-02-14T22:37:02.724Z,48.87
2023-02-14T22:38:05.260Z,48.70
2023-02-14T22:39:08.056Z,48.03
2023-02-14T22:40:10.687Z,48.55
2023-02-14T22:41:14.683Z,47.58
2023-02-14T22:42:17.173Z,52.75
2023-02-14T22:43:19.584Z,51.80
2023-02-14T22:44:22.301Z,50.35
2023-02-14T22:45:24.815Z,41.23
2023-02-14T22:46:28.039Z,40.00
2023-02-14T22:47:31.447Z,40.28
2023-02-14T22:48:34.525Z,44.45
2023-02-14T22:49:37.203Z,42.20
2023-02-14T22:50:39.966Z,39.63
2023-02-14T22:51:42.980Z,41.05
2023-02-14T22:52:45.594Z,43.35
2023-02-14T22:53:48.580Z,40.55
2023-02-14T22:54:54.025Z,40.80
2023-02-14T22:55:56.482Z,41.90
2023-02-14T22:57:00.048Z,39.23
2023-02-14T22:58:02.558Z,39.53
2023-02-14T22:59:06.591Z,37.80
2023-02-14T23:00:11.767Z,37.72
2023-02-14T23:01:15.755Z,38.15
2023-02-14T23:02:18.278Z,37.92
2023-02-14T23:03:21.419Z,35.03
2023-02-14T23:04:25.043Z,35.38
2023-02-14T23:05:27.722Z,32.67
2023-02-14T23:06:31.031Z,36.83
2023-02-14T23:07:33.882Z,38.80
2023-02-14T23:08:43.284Z,34.38
2023-02-14T23:09:45.744Z,38.47
2023-02-14T23:10:49.149Z,37.58
2023-02-14T23:11:52.674Z,40.28
2023-02-14T23:13:13.594Z,34.25
2023-02-14T23:14:35.052Z,33.42
2023-02-14T23:15:56.297Z,38.78
2023-02-14T23:17:25.136Z,38.75
2023-02-14T23:18:46.236Z,35.57
2023-02-14T23:20:07.456Z,34.43
2023-02-14T23:21:32.074Z,34.97
2023-02-14T23:22:37.950Z,35.42
2023-02-14T23:23:40.373Z,37.30
2023-02-14T23:24:43.075Z,32.33
2023-02-14T23:25:45.467Z,33.97
2023-02-14T23:26:48.057Z,36.35
2023-02-14T23:27:51.048Z,33.58
2023-02-14T23:28:54.133Z,37.40
2023-02-14T23:29:56.587Z,37.43
2023-02-14T23:31:02.721Z,32.87
2023-02-14T23:32:06.068Z,34.53
2023-02-14T23:33:08.762Z,32.13
2023-02-14T23:34:11.766Z,36.08
2023-02-14T23:35:14.167Z,33.47
2023-02-14T23:36:16.804Z,32.83
2023-02-14T23:37:19.897Z,34.95
2023-02-14T23:38:23.174Z,32.60
2023-02-14T23:39:25.980Z,35.15
2023-02-14T23:40:28.576Z,30.53